sensor_id;sensor_type;location;lat;lon;timestamp;pressure;altitude;pressure_sealevel;temperature
44429;BMP180;30134;47.866;-4.222;2023-03-14T00:00:59;99725.00;;;23.30
44429;BMP180;30134;47.866;-4.222;2023-03-14T00:03:27;99713.00;;;23.30
44429;BMP180;30134;47.866;-4.222;2023-03-14T00:05:53;99733.00;;;23.30
44429;BMP180;30134;47.866;-4.222;2023-03-14T00:08:20;99736.00;;;23.30
44429;BMP180;30134;47.866;-4.222;2023-03-14T00:10:47;99748.00;;;23.30
44429;BMP180;30134;47.866;-4.222;2023-03-14T00:13:13;99763.00;;;23.20
44429;BMP180;30134;47.866;-4.222;2023-03-14T00:15:41;99755.00;;;23.30
44429;BMP180;30134;47.866;-4.222;2023-03-14T00:18:07;99770.00;;;23.20
44429;BMP180;30134;47.866;-4.222;2023-03-14T00:20:33;99775.00;;;23.20
44429;BMP180;30134;47.866;-4.222;2023-03-14T00:22:59;99777.00;;;23.20
44429;BMP180;30134;47.866;-4.222;2023-03-14T00:25:25;99792.00;;;23.20
44429;BMP180;30134;47.866;-4.222;2023-03-14T00:27:51;99799.00;;;23.20
44429;BMP180;30134;47.866;-4.222;2023-03-14T00:30:18;99820.00;;;23.20
44429;BMP180;30134;47.866;-4.222;2023-03-14T00:32:44;99834.00;;;23.30
44429;BMP180;30134;47.866;-4.222;2023-03-14T00:35:10;99830.00;;;23.20
44429;BMP180;30134;47.866;-4.222;2023-03-14T00:37:37;99837.00;;;23.20
44429;BMP180;30134;47.866;-4.222;2023-03-14T00:40:03;99843.00;;;23.20
44429;BMP180;30134;47.866;-4.222;2023-03-14T00:42:39;99856.00;;;23.20
44429;BMP180;30134;47.866;-4.222;2023-03-14T00:45:05;99861.00;;;23.20
44429;BMP180;30134;47.866;-4.222;2023-03-14T00:47:33;99866.00;;;23.20
44429;BMP180;30134;47.866;-4.222;2023-03-14T00:49:59;99872.00;;;23.20
44429;BMP180;30134;47.866;-4.222;2023-03-14T00:52:25;99888.00;;;23.20
44429;BMP180;30134;47.866;-4.222;2023-03-14T00:54:51;99886.00;;;23.20
44429;BMP180;30134;47.866;-4.222;2023-03-14T00:57:17;99888.00;;;23.20
44429;BMP180;30134;47.866;-4.222;2023-03-14T00:59:43;99894.00;;;23.20
44429;BMP180;30134;47.866;-4.222;2023-03-14T01:02:09;99911.00;;;23.20
44429;BMP180;30134;47.866;-4.222;2023-03-14T01:04:35;99915.00;;;23.20
44429;BMP180;30134;47.866;-4.222;2023-03-14T01:07:03;99925.00;;;23.10
44429;BMP180;30134;47.866;-4.222;2023-03-14T01:09:29;99922.00;;;23.20
44429;BMP180;30134;47.866;-4.222;2023-03-14T01:11:55;99937.00;;;23.20
44429;BMP180;30134;47.866;-4.222;2023-03-14T01:14:21;99951.00;;;23.20
44429;BMP180;30134;47.866;-4.222;2023-03-14T01:16:47;99959.00;;;23.20
44429;BMP180;30134;47.866;-4.222;2023-03-14T01:19:13;99981.00;;;23.20
44429;BMP180;30134;47.866;-4.222;2023-03-14T01:21:39;99980.00;;;23.10
44429;BMP180;30134;47.866;-4.222;2023-03-14T01:24:06;99991.00;;;23.20
44429;BMP180;30134;47.866;-4.222;2023-03-14T01:26:34;99981.00;;;23.20
44429;BMP180;30134;47.866;-4.222;2023-03-14T01:29:01;99990.00;;;23.20
44429;BMP180;30134;47.866;-4.222;2023-03-14T01:31:28;100007.00;;;23.20
44429;BMP180;30134;47.866;-4.222;2023-03-14T01:33:54;100014.00;;;23.20
44429;BMP180;30134;47.866;-4.222;2023-03-14T01:36:20;100012.00;;;23.10
44429;BMP180;30134;47.866;-4.222;2023-03-14T01:38:46;100015.00;;;23.20
44429;BMP180;30134;47.866;-4.222;2023-03-14T01:41:16;100011.00;;;23.20
44429;BMP180;30134;47.866;-4.222;2023-03-14T01:43:42;100023.00;;;23.20
44429;BMP180;30134;47.866;-4.222;2023-03-14T01:46:19;100031.00;;;23.10
44429;BMP180;30134;47.866;-4.222;2023-03-14T01:49:30;100039.00;;;23.10
44429;BMP180;30134;47.866;-4.222;2023-03-14T01:54:47;100061.00;;;23.20
44429;BMP180;30134;47.866;-4.222;2023-03-14T01:57:27;100060.00;;;23.10
44429;BMP180;30134;47.866;-4.222;2023-03-14T02:00:05;100081.00;;;23.10
44429;BMP180;30134;47.866;-4.222;2023-03-14T02:02:46;100079.00;;;23.20
44429;BMP180;30134;47.866;-4.222;2023-03-14T02:05:17;100080.00;;;23.20
44429;BMP180;30134;47.866;-4.222;2023-03-14T02:10:18;100094.00;;;23.20
44429;BMP180;30134;47.866;-4.222;2023-03-14T02:12:46;100098.00;;;23.10
44429;BMP180;30134;47.866;-4.222;2023-03-14T02:15:13;100095.00;;;23.20
44429;BMP180;30134;47.866;-4.222;2023-03-14T02:17:42;100126.00;;;23.10
44429;BMP180;30134;47.866;-4.222;2023-03-14T02:20:51;100122.00;;;23.10
44429;BMP180;30134;47.866;-4.222;2023-03-14T02:24:06;100130.00;;;23.10
44429;BMP180;30134;47.866;-4.222;2023-03-14T02:29:28;100141.00;;;23.00
44429;BMP180;30134;47.866;-4.222;2023-03-14T02:31:55;100139.00;;;23.10
44429;BMP180;30134;47.866;-4.222;2023-03-14T02:34:21;100142.00;;;23.00
44429;BMP180;30134;47.866;-4.222;2023-03-14T02:36:47;100146.00;;;23.10
44429;BMP180;30134;47.866;-4.222;2023-03-14T02:39:26;100149.00;;;23.10
44429;BMP180;30134;47.866;-4.222;2023-03-14T02:41:53;100168.00;;;23.10
44429;BMP180;30134;47.866;-4.222;2023-03-14T02:44:19;100169.00;;;23.00
44429;BMP180;30134;47.866;-4.222;2023-03-14T02:46:45;100172.00;;;23.00
44429;BMP180;30134;47.866;-4.222;2023-03-14T02:49:14;100158.00;;;23.10
44429;BMP180;30134;47.866;-4.222;2023-03-14T02:51:40;100193.00;;;23.10
44429;BMP180;30134;47.866;-4.222;2023-03-14T02:54:08;100186.00;;;23.10
44429;BMP180;30134;47.866;-4.222;2023-03-14T02:56:34;100195.00;;;23.20
44429;BMP180;30134;47.866;-4.222;2023-03-14T02:59:04;100182.00;;;23.20
44429;BMP180;30134;47.866;-4.222;2023-03-14T03:01:30;100199.00;;;23.10
44429;BMP180;30134;47.866;-4.222;2023-03-14T03:03:56;100205.00;;;23.10
44429;BMP180;30134;47.866;-4.222;2023-03-14T03:06:22;100206.00;;;23.10
44429;BMP180;30134;47.866;-4.222;2023-03-14T03:08:48;100215.00;;;23.00
44429;BMP180;30134;47.866;-4.222;2023-03-14T03:11:14;100212.00;;;23.00
44429;BMP180;30134;47.866;-4.222;2023-03-14T03:13:40;100219.00;;;23.00
44429;BMP180;30134;47.866;-4.222;2023-03-14T03:16:06;100208.00;;;23.00
44429;BMP180;30134;47.866;-4.222;2023-03-14T03:18:33;100219.00;;;23.00
44429;BMP180;30134;47.866;-4.222;2023-03-14T03:21:03;100223.00;;;23.00
44429;BMP180;30134;47.866;-4.222;2023-03-14T03:23:30;100224.00;;;23.00
44429;BMP180;30134;47.866;-4.222;2023-03-14T03:25:56;100222.00;;;23.10
44429;BMP180;30134;47.866;-4.222;2023-03-14T03:28:22;100236.00;;;23.00
44429;BMP180;30134;47.866;-4.222;2023-03-14T03:30:48;100248.00;;;23.00
44429;BMP180;30134;47.866;-4.222;2023-03-14T03:33:14;100275.00;;;23.00
44429;BMP180;30134;47.866;-4.222;2023-03-14T03:35:49;100235.00;;;23.00
44429;BMP180;30134;47.866;-4.222;2023-03-14T03:38:16;100254.00;;;22.90
44429;BMP180;30134;47.866;-4.222;2023-03-14T03:40:43;100257.00;;;22.90
44429;BMP180;30134;47.866;-4.222;2023-03-14T03:43:09;100263.00;;;22.90
44429;BMP180;30134;47.866;-4.222;2023-03-14T03:45:35;100274.00;;;22.90
44429;BMP180;30134;47.866;-4.222;2023-03-14T03:48:01;100276.00;;;22.90
44429;BMP180;30134;47.866;-4.222;2023-03-14T03:50:27;100288.00;;;22.90
44429;BMP180;30134;47.866;-4.222;2023-03-14T03:52:53;100287.00;;;22.90
44429;BMP180;30134;47.866;-4.222;2023-03-14T03:55:19;100288.00;;;22.90
44429;BMP180;30134;47.866;-4.222;2023-03-14T03:57:45;100291.00;;;22.90
44429;BMP180;30134;47.866;-4.222;2023-03-14T04:00:11;100291.00;;;23.00
44429;BMP180;30134;47.866;-4.222;2023-03-14T04:02:38;100304.00;;;23.00
44429;BMP180;30134;47.866;-4.222;2023-03-14T04:05:04;100313.00;;;22.90
44429;BMP180;30134;47.866;-4.222;2023-03-14T04:07:33;100307.00;;;22.80
44429;BMP180;30134;47.866;-4.222;2023-03-14T04:09:59;100316.00;;;22.90
44429;BMP180;30134;47.866;-4.222;2023-03-14T04:12:25;100316.00;;;22.90
44429;BMP180;30134;47.866;-4.222;2023-03-14T04:14:51;100359.00;;;22.90
44429;BMP180;30134;47.866;-4.222;2023-03-14T04:17:17;100350.00;;;22.80
44429;BMP180;30134;47.866;-4.222;2023-03-14T04:19:43;100357.00;;;22.80
44429;BMP180;30134;47.866;-4.222;2023-03-14T04:22:09;100359.00;;;22.90
44429;BMP180;30134;47.866;-4.222;2023-03-14T04:24:35;100359.00;;;22.90
44429;BMP180;30134;47.866;-4.222;2023-03-14T04:27:01;100367.00;;;22.80
44429;BMP180;30134;47.866;-4.222;2023-03-14T04:29:27;100374.00;;;22.80
44429;BMP180;30134;47.866;-4.222;2023-03-14T04:31:53;100370.00;;;22.80
44429;BMP180;30134;47.866;-4.222;2023-03-14T04:34:19;100373.00;;;22.80
44429;BMP180;30134;47.866;-4.222;2023-03-14T04:36:45;100366.00;;;22.90
44429;BMP180;30134;47.866;-4.222;2023-03-14T04:39:11;100370.00;;;22.90
44429;BMP180;30134;47.866;-4.222;2023-03-14T04:41:37;100374.00;;;22.80
44429;BMP180;30134;47.866;-4.222;2023-03-14T04:44:03;100382.00;;;22.80
44429;BMP180;30134;47.866;-4.222;2023-03-14T04:46:29;100384.00;;;22.90
44429;BMP180;30134;47.866;-4.222;2023-03-14T04:48:54;100399.00;;;22.90
44429;BMP180;30134;47.866;-4.222;2023-03-14T04:51:22;100392.00;;;22.90
44429;BMP180;30134;47.866;-4.222;2023-03-14T04:53:49;100398.00;;;22.90
44429;BMP180;30134;47.866;-4.222;2023-03-14T04:56:15;100403.00;;;23.00
44429;BMP180;30134;47.866;-4.222;2023-03-14T04:58:41;100413.00;;;22.90
44429;BMP180;30134;47.866;-4.222;2023-03-14T05:01:07;100423.00;;;22.90
44429;BMP180;30134;47.866;-4.222;2023-03-14T05:03:33;100413.00;;;22.90
44429;BMP180;30134;47.866;-4.222;2023-03-14T05:05:59;100421.00;;;22.90
44429;BMP180;30134;47.866;-4.222;2023-03-14T05:08:26;100424.00;;;22.80
44429;BMP180;30134;47.866;-4.222;2023-03-14T05:10:54;100435.00;;;22.80
44429;BMP180;30134;47.866;-4.222;2023-03-14T05:13:21;100425.00;;;22.90
44429;BMP180;30134;47.866;-4.222;2023-03-14T05:15:47;100442.00;;;22.80
44429;BMP180;30134;47.866;-4.222;2023-03-14T05:18:13;100441.00;;;22.90
44429;BMP180;30134;47.866;-4.222;2023-03-14T05:20:39;100446.00;;;22.90
44429;BMP180;30134;47.866;-4.222;2023-03-14T05:23:05;100448.00;;;22.80
44429;BMP180;30134;47.866;-4.222;2023-03-14T05:25:31;100459.00;;;22.90
44429;BMP180;30134;47.866;-4.222;2023-03-14T05:27:58;100451.00;;;22.90
44429;BMP180;30134;47.866;-4.222;2023-03-14T05:30:24;100457.00;;;22.90
44429;BMP180;30134;47.866;-4.222;2023-03-14T05:32:50;100464.00;;;22.90
44429;BMP180;30134;47.866;-4.222;2023-03-14T05:35:19;100459.00;;;22.90
44429;BMP180;30134;47.866;-4.222;2023-03-14T05:37:45;100467.00;;;22.90
44429;BMP180;30134;47.866;-4.222;2023-03-14T05:40:12;100467.00;;;22.90
44429;BMP180;30134;47.866;-4.222;2023-03-14T05:42:38;100464.00;;;22.80
44429;BMP180;30134;47.866;-4.222;2023-03-14T05:45:04;100471.00;;;22.80
44429;BMP180;30134;47.866;-4.222;2023-03-14T05:47:30;100470.00;;;22.80
44429;BMP180;30134;47.866;-4.222;2023-03-14T05:49:57;100478.00;;;22.90
44429;BMP180;30134;47.866;-4.222;2023-03-14T05:52:22;100477.00;;;22.80
44429;BMP180;30134;47.866;-4.222;2023-03-14T05:54:48;100476.00;;;22.80
44429;BMP180;30134;47.866;-4.222;2023-03-14T05:57:14;100484.00;;;22.90
44429;BMP180;30134;47.866;-4.222;2023-03-14T05:59:40;100482.00;;;22.80
44429;BMP180;30134;47.866;-4.222;2023-03-14T06:02:06;100484.00;;;22.90
44429;BMP180;30134;47.866;-4.222;2023-03-14T06:04:32;100483.00;;;22.80
44429;BMP180;30134;47.866;-4.222;2023-03-14T06:06:58;100484.00;;;22.80
44429;BMP180;30134;47.866;-4.222;2023-03-14T06:09:24;100489.00;;;22.80
44429;BMP180;30134;47.866;-4.222;2023-03-14T06:11:50;100495.00;;;22.80
44429;BMP180;30134;47.866;-4.222;2023-03-14T06:14:17;100496.00;;;22.80
44429;BMP180;30134;47.866;-4.222;2023-03-14T06:16:43;100499.00;;;22.80
44429;BMP180;30134;47.866;-4.222;2023-03-14T06:19:10;100506.00;;;22.80
44429;BMP180;30134;47.866;-4.222;2023-03-14T06:21:37;100518.00;;;22.70
44429;BMP180;30134;47.866;-4.222;2023-03-14T06:24:03;100532.00;;;22.80
44429;BMP180;30134;47.866;-4.222;2023-03-14T06:26:29;100529.00;;;22.80
44429;BMP180;30134;47.866;-4.222;2023-03-14T06:28:55;100544.00;;;22.80
44429;BMP180;30134;47.866;-4.222;2023-03-14T06:31:21;100554.00;;;22.80
44429;BMP180;30134;47.866;-4.222;2023-03-14T06:33:47;100555.00;;;22.80
44429;BMP180;30134;47.866;-4.222;2023-03-14T06:36:13;100554.00;;;22.70
44429;BMP180;30134;47.866;-4.222;2023-03-14T06:38:39;100567.00;;;22.80
44429;BMP180;30134;47.866;-4.222;2023-03-14T06:41:07;100565.00;;;22.80
44429;BMP180;30134;47.866;-4.222;2023-03-14T06:43:33;100568.00;;;22.80
44429;BMP180;30134;47.866;-4.222;2023-03-14T06:45:59;100579.00;;;22.80
44429;BMP180;30134;47.866;-4.222;2023-03-14T06:48:26;100586.00;;;22.70
44429;BMP180;30134;47.866;-4.222;2023-03-14T06:50:52;100591.00;;;22.80
44429;BMP180;30134;47.866;-4.222;2023-03-14T06:53:21;100608.00;;;22.70
44429;BMP180;30134;47.866;-4.222;2023-03-14T06:55:47;100607.00;;;22.70
44429;BMP180;30134;47.866;-4.222;2023-03-14T06:58:13;100613.00;;;22.70
44429;BMP180;30134;47.866;-4.222;2023-03-14T07:00:39;100616.00;;;22.70
44429;BMP180;30134;47.866;-4.222;2023-03-14T07:03:06;100619.00;;;22.70
44429;BMP180;30134;47.866;-4.222;2023-03-14T07:05:32;100623.00;;;22.70
44429;BMP180;30134;47.866;-4.222;2023-03-14T07:07:58;100620.00;;;22.70
44429;BMP180;30134;47.866;-4.222;2023-03-14T07:10:24;100625.00;;;22.70
44429;BMP180;30134;47.866;-4.222;2023-03-14T07:12:50;100627.00;;;22.70
44429;BMP180;30134;47.866;-4.222;2023-03-14T07:15:18;100624.00;;;22.70
44429;BMP180;30134;47.866;-4.222;2023-03-14T07:17:44;100635.00;;;22.70
44429;BMP180;30134;47.866;-4.222;2023-03-14T07:20:11;100625.00;;;22.70
44429;BMP180;30134;47.866;-4.222;2023-03-14T07:22:37;100638.00;;;22.70
44429;BMP180;30134;47.866;-4.222;2023-03-14T07:25:03;100629.00;;;22.70
44429;BMP180;30134;47.866;-4.222;2023-03-14T07:27:29;100638.00;;;22.70
44429;BMP180;30134;47.866;-4.222;2023-03-14T07:29:55;100634.00;;;22.70
44429;BMP180;30134;47.866;-4.222;2023-03-14T07:32:24;100643.00;;;22.60
44429;BMP180;30134;47.866;-4.222;2023-03-14T07:34:51;100640.00;;;22.70
44429;BMP180;30134;47.866;-4.222;2023-03-14T07:37:18;100644.00;;;22.70
44429;BMP180;30134;47.866;-4.222;2023-03-14T07:39:44;100646.00;;;22.60
44429;BMP180;30134;47.866;-4.222;2023-03-14T07:42:10;100664.00;;;22.60
44429;BMP180;30134;47.866;-4.222;2023-03-14T07:44:36;100664.00;;;22.60
44429;BMP180;30134;47.866;-4.222;2023-03-14T07:47:02;100666.00;;;22.60
44429;BMP180;30134;47.866;-4.222;2023-03-14T07:49:29;100668.00;;;22.70
44429;BMP180;30134;47.866;-4.222;2023-03-14T07:51:55;100671.00;;;22.60
44429;BMP180;30134;47.866;-4.222;2023-03-14T07:54:21;100672.00;;;22.60
44429;BMP180;30134;47.866;-4.222;2023-03-14T07:56:47;100687.00;;;22.60
44429;BMP180;30134;47.866;-4.222;2023-03-14T07:59:13;100691.00;;;22.60
44429;BMP180;30134;47.866;-4.222;2023-03-14T08:01:39;100703.00;;;22.60
44429;BMP180;30134;47.866;-4.222;2023-03-14T08:04:04;100700.00;;;22.70
44429;BMP180;30134;47.866;-4.222;2023-03-14T08:06:30;100717.00;;;22.60
44429;BMP180;30134;47.866;-4.222;2023-03-14T08:08:56;100734.00;;;22.60
44429;BMP180;30134;47.866;-4.222;2023-03-14T08:11:23;100725.00;;;22.60
44429;BMP180;30134;47.866;-4.222;2023-03-14T08:13:49;100731.00;;;22.60
44429;BMP180;30134;47.866;-4.222;2023-03-14T08:16:19;100744.00;;;22.60
44429;BMP180;30134;47.866;-4.222;2023-03-14T08:18:45;100754.00;;;22.50
44429;BMP180;30134;47.866;-4.222;2023-03-14T08:21:12;100756.00;;;22.60
44429;BMP180;30134;47.866;-4.222;2023-03-14T08:23:38;100784.00;;;22.60
44429;BMP180;30134;47.866;-4.222;2023-03-14T08:26:04;100797.00;;;22.50
44429;BMP180;30134;47.866;-4.222;2023-03-14T08:28:30;100793.00;;;22.50
44429;BMP180;30134;47.866;-4.222;2023-03-14T08:30:59;100788.00;;;22.60
44429;BMP180;30134;47.866;-4.222;2023-03-14T08:33:28;100786.00;;;22.60
44429;BMP180;30134;47.866;-4.222;2023-03-14T08:35:56;100786.00;;;22.50
44429;BMP180;30134;47.866;-4.222;2023-03-14T08:38:23;100794.00;;;22.60
44429;BMP180;30134;47.866;-4.222;2023-03-14T08:40:50;100804.00;;;22.50
44429;BMP180;30134;47.866;-4.222;2023-03-14T08:43:20;100805.00;;;22.60
44429;BMP180;30134;47.866;-4.222;2023-03-14T08:45:46;100812.00;;;22.50
44429;BMP180;30134;47.866;-4.222;2023-03-14T08:48:12;100815.00;;;22.50
44429;BMP180;30134;47.866;-4.222;2023-03-14T08:50:38;100817.00;;;22.60
44429;BMP180;30134;47.866;-4.222;2023-03-14T08:53:04;100821.00;;;22.50
44429;BMP180;30134;47.866;-4.222;2023-03-14T08:55:31;100818.00;;;22.50
44429;BMP180;30134;47.866;-4.222;2023-03-14T08:57:57;100816.00;;;22.50
44429;BMP180;30134;47.866;-4.222;2023-03-14T09:00:23;100831.00;;;22.50
44429;BMP180;30134;47.866;-4.222;2023-03-14T09:02:49;100821.00;;;22.50
44429;BMP180;30134;47.866;-4.222;2023-03-14T09:05:22;100836.00;;;22.50
44429;BMP180;30134;47.866;-4.222;2023-03-14T09:07:48;100847.00;;;22.50
44429;BMP180;30134;47.866;-4.222;2023-03-14T09:10:14;100833.00;;;22.50
44429;BMP180;30134;47.866;-4.222;2023-03-14T09:12:40;100839.00;;;22.50
44429;BMP180;30134;47.866;-4.222;2023-03-14T09:15:07;100861.00;;;22.50
44429;BMP180;30134;47.866;-4.222;2023-03-14T09:17:34;100858.00;;;22.60
44429;BMP180;30134;47.866;-4.222;2023-03-14T09:20:00;100872.00;;;22.60
44429;BMP180;30134;47.866;-4.222;2023-03-14T09:22:26;100868.00;;;22.60
44429;BMP180;30134;47.866;-4.222;2023-03-14T09:24:52;100875.00;;;22.50
44429;BMP180;30134;47.866;-4.222;2023-03-14T09:27:18;100878.00;;;22.50
44429;BMP180;30134;47.866;-4.222;2023-03-14T09:29:44;100883.00;;;22.50
44429;BMP180;30134;47.866;-4.222;2023-03-14T09:32:10;100889.00;;;22.50
44429;BMP180;30134;47.866;-4.222;2023-03-14T09:34:36;100890.00;;;22.50
44429;BMP180;30134;47.866;-4.222;2023-03-14T09:37:02;100888.00;;;22.50
44429;BMP180;30134;47.866;-4.222;2023-03-14T09:39:29;100901.00;;;22.50
44429;BMP180;30134;47.866;-4.222;2023-03-14T09:41:57;100894.00;;;22.50
44429;BMP180;30134;47.866;-4.222;2023-03-14T09:44:33;100911.00;;;22.50
44429;BMP180;30134;47.866;-4.222;2023-03-14T09:47:07;100902.00;;;22.50
44429;BMP180;30134;47.866;-4.222;2023-03-14T09:49:40;100932.00;;;22.50
44429;BMP180;30134;47.866;-4.222;2023-03-14T09:52:31;100916.00;;;22.50
44429;BMP180;30134;47.866;-4.222;2023-03-14T09:55:05;100933.00;;;22.50
44429;BMP180;30134;47.866;-4.222;2023-03-14T09:57:34;100926.00;;;22.50
44429;BMP180;30134;47.866;-4.222;2023-03-14T10:00:30;100941.00;;;22.50
44429;BMP180;30134;47.866;-4.222;2023-03-14T10:03:21;100950.00;;;22.60
44429;BMP180;30134;47.866;-4.222;2023-03-14T10:05:48;100955.00;;;22.60
44429;BMP180;30134;47.866;-4.222;2023-03-14T10:08:14;100947.00;;;22.60
44429;BMP180;30134;47.866;-4.222;2023-03-14T10:10:41;100950.00;;;22.50
44429;BMP180;30134;47.866;-4.222;2023-03-14T10:13:22;100968.00;;;22.40
44429;BMP180;30134;47.866;-4.222;2023-03-14T10:16:04;100958.00;;;22.20
44429;BMP180;30134;47.866;-4.222;2023-03-14T10:18:32;100948.00;;;22.40
44429;BMP180;30134;47.866;-4.222;2023-03-14T10:21:26;100958.00;;;22.40
44429;BMP180;30134;47.866;-4.222;2023-03-14T10:23:53;100957.00;;;22.50
44429;BMP180;30134;47.866;-4.222;2023-03-14T10:26:27;100954.00;;;22.40
44429;BMP180;30134;47.866;-4.222;2023-03-14T10:29:10;100966.00;;;22.40
44429;BMP180;30134;47.866;-4.222;2023-03-14T10:32:05;100963.00;;;22.40
44429;BMP180;30134;47.866;-4.222;2023-03-14T10:34:38;100966.00;;;22.40
44429;BMP180;30134;47.866;-4.222;2023-03-14T10:37:24;100954.00;;;22.40
44429;BMP180;30134;47.866;-4.222;2023-03-14T10:39:55;100959.00;;;22.40
44429;BMP180;30134;47.866;-4.222;2023-03-14T10:42:38;100965.00;;;22.40
44429;BMP180;30134;47.866;-4.222;2023-03-14T10:47:51;100980.00;;;22.10
44429;BMP180;30134;47.866;-4.222;2023-03-14T10:50:27;100991.00;;;22.20
44429;BMP180;30134;47.866;-4.222;2023-03-14T10:52:54;100997.00;;;22.20
44429;BMP180;30134;47.866;-4.222;2023-03-14T10:55:20;100993.00;;;22.30
44429;BMP180;30134;47.866;-4.222;2023-03-14T10:57:46;100988.00;;;22.30
44429;BMP180;30134;47.866;-4.222;2023-03-14T11:00:19;100986.00;;;22.30
44429;BMP180;30134;47.866;-4.222;2023-03-14T11:03:11;101009.00;;;22.30
44429;BMP180;30134;47.866;-4.222;2023-03-14T11:06:06;101011.00;;;22.30
44429;BMP180;30134;47.866;-4.222;2023-03-14T11:17:14;101011.00;;;22.30
44429;BMP180;30134;47.866;-4.222;2023-03-14T11:22:59;101041.00;;;22.30
44429;BMP180;30134;47.866;-4.222;2023-03-14T11:25:56;101017.00;;;22.30
44429;BMP180;30134;47.866;-4.222;2023-03-14T11:28:41;101035.00;;;22.20
44429;BMP180;30134;47.866;-4.222;2023-03-14T11:31:28;101030.00;;;22.30
44429;BMP180;30134;47.866;-4.222;2023-03-14T11:36:51;101022.00;;;22.30
44429;BMP180;30134;47.866;-4.222;2023-03-14T11:39:20;101049.00;;;22.20
44429;BMP180;30134;47.866;-4.222;2023-03-14T11:41:55;101047.00;;;22.30
44429;BMP180;30134;47.866;-4.222;2023-03-14T11:44:39;101054.00;;;22.30
44429;BMP180;30134;47.866;-4.222;2023-03-14T11:47:34;101050.00;;;22.20
44429;BMP180;30134;47.866;-4.222;2023-03-14T11:50:25;101080.00;;;22.30
44429;BMP180;30134;47.866;-4.222;2023-03-14T11:53:10;101065.00;;;22.30
44429;BMP180;30134;47.866;-4.222;2023-03-14T11:55:42;101075.00;;;22.30
44429;BMP180;30134;47.866;-4.222;2023-03-14T11:58:27;101069.00;;;22.20
44429;BMP180;30134;47.866;-4.222;2023-03-14T12:00:56;101077.00;;;22.20
44429;BMP180;30134;47.866;-4.222;2023-03-14T12:03:37;101088.00;;;22.20
44429;BMP180;30134;47.866;-4.222;2023-03-14T12:06:16;101084.00;;;22.20
44429;BMP180;30134;47.866;-4.222;2023-03-14T12:08:54;101069.00;;;22.20
44429;BMP180;30134;47.866;-4.222;2023-03-14T12:14:34;101085.00;;;22.30
44429;BMP180;30134;47.866;-4.222;2023-03-14T12:19:41;101090.00;;;22.30
44429;BMP180;30134;47.866;-4.222;2023-03-14T12:25:05;101088.00;;;22.20
44429;BMP180;30134;47.866;-4.222;2023-03-14T12:30:34;101096.00;;;22.10
44429;BMP180;30134;47.866;-4.222;2023-03-14T12:35:43;101101.00;;;22.20
44429;BMP180;30134;47.866;-4.222;2023-03-14T12:41:38;101120.00;;;22.30
44429;BMP180;30134;47.866;-4.222;2023-03-14T12:49:43;101112.00;;;22.30
44429;BMP180;30134;47.866;-4.222;2023-03-14T12:52:32;101116.00;;;22.30
44429;BMP180;30134;47.866;-4.222;2023-03-14T13:01:06;101105.00;;;22.30
44429;BMP180;30134;47.866;-4.222;2023-03-14T13:03:52;101117.00;;;22.30
44429;BMP180;30134;47.866;-4.222;2023-03-14T13:06:56;101116.00;;;22.40
44429;BMP180;30134;47.866;-4.222;2023-03-14T13:14:33;101121.00;;;22.50
44429;BMP180;30134;47.866;-4.222;2023-03-14T13:17:01;101122.00;;;22.40
44429;BMP180;30134;47.866;-4.222;2023-03-14T13:19:29;101126.00;;;22.40
44429;BMP180;30134;47.866;-4.222;2023-03-14T13:22:11;101125.00;;;22.40
44429;BMP180;30134;47.866;-4.222;2023-03-14T13:24:38;101126.00;;;22.40
44429;BMP180;30134;47.866;-4.222;2023-03-14T13:27:05;101134.00;;;22.50
44429;BMP180;30134;47.866;-4.222;2023-03-14T13:29:35;101119.00;;;22.40
44429;BMP180;30134;47.866;-4.222;2023-03-14T13:32:20;101125.00;;;22.60
44429;BMP180;30134;47.866;-4.222;2023-03-14T13:34:47;101132.00;;;22.80
44429;BMP180;30134;47.866;-4.222;2023-03-14T13:37:21;101131.00;;;23.00
44429;BMP180;30134;47.866;-4.222;2023-03-14T13:39:57;101136.00;;;22.70
44429;BMP180;30134;47.866;-4.222;2023-03-14T13:42:28;101130.00;;;22.80
44429;BMP180;30134;47.866;-4.222;2023-03-14T13:44:55;101141.00;;;22.80
44429;BMP180;30134;47.866;-4.222;2023-03-14T13:47:25;101128.00;;;22.70
44429;BMP180;30134;47.866;-4.222;2023-03-14T13:49:52;101140.00;;;22.80
44429;BMP180;30134;47.866;-4.222;2023-03-14T13:52:35;101135.00;;;22.80
44429;BMP180;30134;47.866;-4.222;2023-03-14T13:55:04;101137.00;;;22.80
44429;BMP180;30134;47.866;-4.222;2023-03-14T13:57:52;101133.00;;;22.80
44429;BMP180;30134;47.866;-4.222;2023-03-14T14:00:25;101148.00;;;22.80
44429;BMP180;30134;47.866;-4.222;2023-03-14T14:02:57;101138.00;;;22.80
44429;BMP180;30134;47.866;-4.222;2023-03-14T14:05:28;101142.00;;;22.80
44429;BMP180;30134;47.866;-4.222;2023-03-14T14:07:54;101136.00;;;22.80
44429;BMP180;30134;47.866;-4.222;2023-03-14T14:10:21;101137.00;;;22.90
44429;BMP180;30134;47.866;-4.222;2023-03-14T14:13:01;101144.00;;;22.80
44429;BMP180;30134;47.866;-4.222;2023-03-14T14:15:33;101159.00;;;22.80
44429;BMP180;30134;47.866;-4.222;2023-03-14T14:18:05;101151.00;;;22.80
44429;BMP180;30134;47.866;-4.222;2023-03-14T14:23:15;101155.00;;;22.80
44429;BMP180;30134;47.866;-4.222;2023-03-14T14:25:48;101146.00;;;22.80
44429;BMP180;30134;47.866;-4.222;2023-03-14T14:28:29;101155.00;;;22.80
44429;BMP180;30134;47.866;-4.222;2023-03-14T14:33:45;101145.00;;;22.80
44429;BMP180;30134;47.866;-4.222;2023-03-14T14:36:25;101160.00;;;22.80
44429;BMP180;30134;47.866;-4.222;2023-03-14T14:41:34;101159.00;;;22.80
44429;BMP180;30134;47.866;-4.222;2023-03-14T14:44:03;101158.00;;;22.80
44429;BMP180;30134;47.866;-4.222;2023-03-14T14:46:33;101154.00;;;22.90
44429;BMP180;30134;47.866;-4.222;2023-03-14T14:49:27;101158.00;;;22.80
44429;BMP180;30134;47.866;-4.222;2023-03-14T14:52:47;101157.00;;;22.90
44429;BMP180;30134;47.866;-4.222;2023-03-14T14:54:57;101159.00;;;22.90
44429;BMP180;30134;47.866;-4.222;2023-03-14T14:57:30;101163.00;;;22.90
44429;BMP180;30134;47.866;-4.222;2023-03-14T15:00:04;101162.00;;;22.90
44429;BMP180;30134;47.866;-4.222;2023-03-14T15:05:17;101167.00;;;22.90
44429;BMP180;30134;47.866;-4.222;2023-03-14T15:07:45;101168.00;;;23.00
44429;BMP180;30134;47.866;-4.222;2023-03-14T15:10:15;101167.00;;;22.90
44429;BMP180;30134;47.866;-4.222;2023-03-14T15:12:43;101163.00;;;22.90